createdAt,value
2018-11-27T00:00:36.206Z,4.00
2018-11-27T00:03:07.497Z,4.00
2018-11-27T00:05:37.867Z,4.00
2018-11-27T00:08:07.808Z,3.90
2018-11-27T00:10:38.731Z,4.00
2018-11-27T00:13:07.955Z,3.90
2018-11-27T00:15:37.124Z,4.00
2018-11-27T00:18:06.308Z,4.00
2018-11-27T00:20:35.433Z,4.00
2018-11-27T00:23:04.718Z,4.00
2018-11-27T00:25:34.412Z,4.10
2018-11-27T00:28:03.814Z,4.00
2018-11-27T00:30:33.140Z,4.00
2018-11-27T00:33:02.266Z,3.90
2018-11-27T00:35:31.639Z,4.00
2018-11-27T00:38:00.957Z,3.90
2018-11-27T00:40:30.247Z,3.90
2018-11-27T00:42:59.843Z,3.90
2018-11-27T00:45:29.065Z,3.80
2018-11-27T00:47:58.162Z,3.80
2018-11-27T00:50:27.437Z,3.80
2018-11-27T00:52:56.655Z,3.70
2018-11-27T00:55:25.765Z,3.70
2018-11-27T00:57:54.995Z,3.80
2018-11-27T01:00:25.415Z,3.70
2018-11-27T01:02:55.008Z,3.70
2018-11-27T01:05:24.792Z,3.60
2018-11-27T01:07:53.955Z,3.60
2018-11-27T01:10:25.331Z,3.60
2018-11-27T01:12:54.657Z,3.50
2018-11-27T01:15:23.954Z,3.50
2018-11-27T01:17:54.999Z,3.50
2018-11-27T01:20:25.107Z,3.50
2018-11-27T01:22:54.332Z,3.60
2018-11-27T01:25:23.852Z,3.50
2018-11-27T01:27:53.031Z,3.50
2018-11-27T01:30:23.302Z,3.60
2018-11-27T01:36:10.497Z,3.50
2018-11-27T01:38:39.771Z,3.50
2018-11-27T01:41:09.192Z,3.40
2018-11-27T01:43:38.408Z,3.50
2018-11-27T01:46:07.556Z,3.40
2018-11-27T01:48:36.837Z,3.40
2018-11-27T01:51:06.376Z,3.40
2018-11-27T01:53:35.519Z,3.40
2018-11-27T01:56:04.994Z,3.40
2018-11-27T01:58:34.446Z,3.40
2018-11-27T02:01:03.698Z,3.50
2018-11-27T02:03:32.784Z,3.50
2018-11-27T02:06:02.172Z,3.50
2018-11-27T02:08:31.372Z,3.50
2018-11-27T02:11:00.711Z,3.50
2018-11-27T02:13:30.342Z,3.50
2018-11-27T02:15:59.599Z,3.40
2018-11-27T02:18:28.850Z,3.40
2018-11-27T02:20:58.308Z,3.40
2018-11-27T02:23:27.611Z,3.40
2018-11-27T02:25:56.692Z,3.40
2018-11-27T02:28:26.404Z,3.30
2018-11-27T02:30:55.639Z,3.30
2018-11-27T02:33:26.589Z,3.30
2018-11-27T02:35:55.720Z,3.20
2018-11-27T02:38:24.902Z,3.20
2018-11-27T02:40:54.052Z,3.20
2018-11-27T02:43:23.142Z,3.10
2018-11-27T02:45:52.235Z,3.10
2018-11-27T02:48:21.436Z,3.10
2018-11-27T02:50:50.813Z,3.10
2018-11-27T02:53:20.061Z,3.00
2018-11-27T02:55:49.338Z,3.00
2018-11-27T02:58:18.588Z,3.10
2018-11-27T03:00:47.747Z,3.10
2018-11-27T03:03:16.991Z,3.00
2018-11-27T03:05:46.670Z,3.00
2018-11-27T03:08:15.811Z,3.00
2018-11-27T03:10:44.965Z,3.00
2018-11-27T03:13:14.204Z,3.00
2018-11-27T03:15:44.334Z,3.00
2018-11-27T03:18:13.560Z,2.90
2018-11-27T03:20:42.927Z,2.90
2018-11-27T03:23:12.052Z,2.90
2018-11-27T03:25:41.163Z,2.90
2018-11-27T03:28:10.258Z,3.00
2018-11-27T03:30:39.571Z,2.90
2018-11-27T03:33:08.911Z,2.90
2018-11-27T03:35:38.160Z,2.90
2018-11-27T03:38:07.347Z,2.80
2018-11-27T03:40:36.650Z,2.80
2018-11-27T03:43:05.867Z,2.80
2018-11-27T03:45:35.468Z,2.70
2018-11-27T03:48:04.571Z,2.70
2018-11-27T03:50:33.985Z,2.80
2018-11-27T03:53:03.235Z,2.90
2018-11-27T03:55:32.341Z,2.90
2018-11-27T03:58:01.524Z,2.80
2018-11-27T04:00:31.473Z,2.80
2018-11-27T04:03:09.027Z,2.80
2018-11-27T04:05:38.516Z,2.80
2018-11-27T04:08:09.024Z,2.80
2018-11-27T04:10:39.344Z,2.80
2018-11-27T04:13:08.591Z,2.80
2018-11-27T04:15:37.738Z,2.80
2018-11-27T04:18:06.956Z,2.80
2018-11-27T04:20:36.423Z,2.80
2018-11-27T04:23:06.682Z,2.80
2018-11-27T04:25:36.064Z,2.80
2018-11-27T04:28:05.757Z,2.80
2018-11-27T04:30:35.354Z,2.80
2018-11-27T04:33:04.501Z,2.80
2018-11-27T04:35:33.792Z,2.80
2018-11-27T04:38:02.789Z,2.80
2018-11-27T04:40:32.057Z,2.80
2018-11-27T04:43:01.170Z,2.90
2018-11-27T04:45:30.286Z,2.80
2018-11-27T04:47:59.544Z,2.70
2018-11-27T04:50:28.719Z,2.70
2018-11-27T04:52:57.906Z,2.70
2018-11-27T04:55:26.995Z,2.70
2018-11-27T04:57:56.161Z,2.70
2018-11-27T05:00:26.366Z,2.70
2018-11-27T05:02:55.767Z,2.80
2018-11-27T05:05:25.694Z,2.80
2018-11-27T05:07:54.884Z,2.70
2018-11-27T05:10:25.014Z,2.70
2018-11-27T05:12:54.301Z,2.70
2018-11-27T05:15:25.007Z,2.70
2018-11-27T05:17:56.381Z,2.70
2018-11-27T05:20:25.500Z,2.80
2018-11-27T05:22:54.632Z,2.80
2018-11-27T05:25:23.796Z,2.70
2018-11-27T05:27:54.115Z,2.70
2018-11-27T05:30:24.332Z,2.80
2018-11-27T05:32:53.488Z,2.70
2018-11-27T05:35:25.810Z,2.70
2018-11-27T05:37:55.507Z,2.70
2018-11-27T05:40:25.520Z,2.70
2018-11-27T05:43:02.115Z,2.60
2018-11-27T05:45:31.728Z,2.60
2018-11-27T05:48:04.201Z,2.60
2018-11-27T05:50:33.699Z,2.50
2018-11-27T05:53:03.133Z,2.60
2018-11-27T05:55:32.241Z,2.60
2018-11-27T05:58:01.453Z,2.70
2018-11-27T06:00:30.925Z,2.60
2018-11-27T06:03:00.973Z,2.60
2018-11-27T06:05:30.038Z,2.50
2018-11-27T06:07:59.127Z,2.50
2018-11-27T06:10:28.356Z,2.50
2018-11-27T06:12:57.429Z,2.50
2018-11-27T06:15:26.535Z,2.50
2018-11-27T06:17:58.955Z,2.40
2018-11-27T06:20:28.165Z,2.40
2018-11-27T06:22:57.326Z,2.50
2018-11-27T06:25:27.617Z,2.40
2018-11-27T06:28:02.126Z,2.40
2018-11-27T06:30:35.831Z,2.40
2018-11-27T06:33:05.610Z,2.30
2018-11-27T06:35:43.468Z,2.20
2018-11-27T06:38:12.654Z,2.10
2018-11-27T06:40:42.712Z,2.00
2018-11-27T06:43:12.766Z,2.00
2018-11-27T06:45:43.413Z,1.90
2018-11-27T06:48:13.075Z,1.90
2018-11-27T06:50:42.194Z,1.80
2018-11-27T06:53:11.482Z,1.80
2018-11-27T06:55:40.669Z,1.80
2018-11-27T06:58:09.966Z,1.70
2018-11-27T07:00:39.498Z,1.70
2018-11-27T07:03:11.202Z,1.60
2018-11-27T07:05:40.544Z,1.50
2018-11-27T07:08:10.057Z,1.50
2018-11-27T07:10:40.992Z,1.40
2018-11-27T07:13:17.599Z,1.30
2018-11-27T07:15:47.246Z,1.30
2018-11-27T07:18:16.483Z,1.20
2018-11-27T07:20:45.844Z,1.20
2018-11-27T07:23:15.549Z,1.10
2018-11-27T07:25:44.801Z,1.10
2018-11-27T07:28:13.932Z,1.00
2018-11-27T07:30:43.335Z,0.90
2018-11-27T07:33:12.434Z,0.90
2018-11-27T07:35:44.509Z,0.90
2018-11-27T07:38:13.715Z,0.90
2018-11-27T07:40:43.628Z,0.90
2018-11-27T07:43:13.391Z,0.90
2018-11-27T07:45:42.615Z,0.90
2018-11-27T07:48:11.802Z,0.90
2018-11-27T07:50:41.475Z,0.90
2018-11-27T07:53:10.745Z,0.90
2018-11-27T07:55:39.837Z,0.90
2018-11-27T07:58:08.987Z,1.00
2018-11-27T08:00:38.056Z,1.00
2018-11-27T08:03:07.531Z,1.00
2018-11-27T08:05:40.008Z,1.00
2018-11-27T08:08:11.597Z,1.10
2018-11-27T08:10:41.040Z,1.10
2018-11-27T08:13:10.870Z,1.20
2018-11-27T08:15:39.934Z,1.20
2018-11-27T08:18:09.855Z,1.30
2018-11-27T08:20:39.004Z,1.30
2018-11-27T08:23:09.341Z,1.40
2018-11-27T08:25:38.555Z,1.40
2018-11-27T08:28:07.878Z,1.50
2018-11-27T08:30:38.008Z,1.50
2018-11-27T08:33:07.550Z,1.60
2018-11-27T08:35:36.641Z,1.70
2018-11-27T08:38:06.240Z,1.70
2018-11-27T08:40:37.610Z,1.80
2018-11-27T08:43:07.488Z,1.90
2018-11-27T08:45:36.580Z,2.00
2018-11-27T08:48:05.950Z,2.10
2018-11-27T08:50:35.141Z,2.20
2018-11-27T08:53:05.812Z,2.40
2018-11-27T08:55:43.447Z,2.50
2018-11-27T08:58:22.058Z,2.60
2018-11-27T09:00:51.354Z,2.70
2018-11-27T09:03:20.566Z,2.70
2018-11-27T09:05:49.652Z,2.80
2018-11-27T09:08:18.743Z,2.90
2018-11-27T09:10:47.810Z,2.90
2018-11-27T09:13:17.111Z,3.00
2018-11-27T09:15:46.039Z,3.10
2018-11-27T09:18:18.417Z,3.20
2018-11-27T09:20:47.674Z,3.30
2018-11-27T09:23:16.831Z,3.40
2018-11-27T09:25:46.149Z,3.40
2018-11-27T09:28:15.319Z,3.50
2018-11-27T09:30:44.432Z,3.50
2018-11-27T09:33:13.505Z,3.60
2018-11-27T09:35:42.571Z,3.70
2018-11-27T09:38:11.794Z,3.60
2018-11-27T09:40:40.962Z,3.70
2018-11-27T09:43:10.105Z,3.70
2018-11-27T09:45:44.543Z,3.70
2018-11-27T09:48:13.803Z,3.70
2018-11-27T09:50:43.100Z,3.70
2018-11-27T09:53:13.718Z,3.80
2018-11-27T09:55:42.840Z,3.80
2018-11-27T09:58:11.940Z,3.90
2018-11-27T10:00:41.034Z,4.00
2018-11-27T10:03:11.719Z,4.10
2018-11-27T10:05:40.860Z,4.10
2018-11-27T10:08:10.368Z,4.10
2018-11-27T10:10:39.482Z,4.10
2018-11-27T10:13:08.900Z,4.10
2018-11-27T10:15:37.936Z,4.10
2018-11-27T10:18:07.134Z,4.10
2018-11-27T10:20:37.659Z,4.20
2018-11-27T10:23:12.976Z,4.20
2018-11-27T10:25:42.031Z,4.10
2018-11-27T10:28:11.130Z,4.20
2018-11-27T10:30:40.268Z,4.20
2018-11-27T10:33:10.616Z,4.20
2018-11-27T10:35:54.565Z,4.30
2018-11-27T10:38:23.626Z,4.30
2018-11-27T10:40:53.080Z,4.40
2018-11-27T10:43:22.174Z,4.30
2018-11-27T10:45:51.294Z,4.30
2018-11-27T10:48:21.310Z,4.20
2018-11-27T10:50:50.463Z,4.40
2018-11-27T10:53:19.598Z,4.40
2018-11-27T10:55:48.790Z,4.40
2018-11-27T10:58:18.186Z,4.60
2018-11-27T11:00:52.714Z,4.70
2018-11-27T11:03:25.418Z,4.70
2018-11-27T11:05:56.159Z,4.70
2018-11-27T11:08:25.347Z,4.60
2018-11-27T11:10:54.628Z,4.60
2018-11-27T11:13:23.978Z,4.60
2018-11-27T11:15:53.461Z,4.70
2018-11-27T11:18:22.749Z,4.70
2018-11-27T11:20:52.224Z,4.80
2018-11-27T11:23:21.691Z,4.90
2018-11-27T11:25:51.013Z,4.90
2018-11-27T11:28:22.076Z,4.90
2018-11-27T11:30:52.616Z,4.90
2018-11-27T11:33:21.779Z,5.00
2018-11-27T11:35:50.997Z,5.00
2018-11-27T11:38:20.242Z,5.00
2018-11-27T11:40:49.316Z,4.90
2018-11-27T11:43:18.421Z,5.00
2018-11-27T11:45:47.584Z,5.10
2018-11-27T11:48:16.598Z,5.00
2018-11-27T11:50:45.689Z,5.00
2018-11-27T11:53:16.228Z,5.00
2018-11-27T11:55:46.351Z,5.10
2018-11-27T11:58:15.571Z,5.00
2018-11-27T12:00:47.960Z,5.00
2018-11-27T12:03:17.089Z,5.10
2018-11-27T12:05:46.190Z,4.90
2018-11-27T12:08:15.245Z,5.00
2018-11-27T12:10:44.347Z,4.90
2018-11-27T12:13:13.507Z,4.90
2018-11-27T12:15:42.624Z,5.10
2018-11-27T12:18:11.657Z,5.00
2018-11-27T12:20:41.229Z,5.00
2018-11-27T12:23:11.357Z,4.80
2018-11-27T12:25:40.968Z,4.90
2018-11-27T12:28:14.757Z,5.00
2018-11-27T12:30:40.157Z,5.00
2018-11-27T12:33:09.305Z,5.10
2018-11-27T12:35:38.336Z,5.10
2018-11-27T12:38:11.258Z,5.20
2018-11-27T12:40:40.445Z,5.20
2018-11-27T12:43:09.560Z,5.30
2018-11-27T12:45:38.840Z,5.20
2018-11-27T12:48:07.901Z,5.20
2018-11-27T12:50:41.283Z,5.10
2018-11-27T12:53:16.758Z,5.20
2018-11-27T12:55:42.290Z,5.10
2018-11-27T12:58:11.351Z,5.20
2018-11-27T13:00:40.554Z,5.10
2018-11-27T13:03:09.789Z,5.00
2018-11-27T13:05:42.279Z,4.90
2018-11-27T13:08:15.913Z,4.90
2018-11-27T13:10:45.023Z,4.90
2018-11-27T13:13:14.253Z,4.90
2018-11-27T13:15:44.408Z,4.80
2018-11-27T13:18:13.578Z,4.80
2018-11-27T13:20:43.736Z,4.70
2018-11-27T13:23:12.855Z,4.70
2018-11-27T13:25:41.930Z,4.70
2018-11-27T13:28:12.454Z,4.70
2018-11-27T13:30:57.538Z,4.60
2018-11-27T13:33:30.425Z,4.70
2018-11-27T13:35:59.479Z,4.60
2018-11-27T13:38:28.747Z,4.60
2018-11-27T13:40:57.932Z,4.50
2018-11-27T13:43:29.229Z,4.50
2018-11-27T13:45:59.695Z,4.40
2018-11-27T13:48:29.161Z,4.40
2018-11-27T13:50:58.368Z,4.30
2018-11-27T13:53:27.567Z,4.30
2018-11-27T13:55:56.734Z,4.30
2018-11-27T13:58:26.328Z,4.30
2018-11-27T14:00:55.663Z,4.30
2018-11-27T14:03:25.029Z,4.30
2018-11-27T14:05:54.184Z,4.30
2018-11-27T14:08:23.346Z,4.40
2018-11-27T14:10:52.581Z,4.40
2018-11-27T14:13:21.936Z,4.30
2018-11-27T14:15:51.254Z,4.30
2018-11-27T14:18:20.677Z,4.20
2018-11-27T14:20:49.865Z,4.30
2018-11-27T14:23:19.035Z,4.20
2018-11-27T14:25:48.270Z,4.20
2018-11-27T14:28:17.488Z,4.20
2018-11-27T14:30:47.263Z,4.20
2018-11-27T14:33:16.503Z,4.10
2018-11-27T14:35:45.688Z,4.00
2018-11-27T14:38:14.852Z,4.00
2018-11-27T14:40:44.124Z,4.00
2018-11-27T14:43:13.455Z,3.90
2018-11-27T14:45:42.705Z,3.90
2018-11-27T14:48:11.790Z,3.90
2018-11-27T14:50:41.030Z,3.90
2018-11-27T14:53:10.272Z,3.90
2018-11-27T14:55:39.401Z,3.90
2018-11-27T14:58:08.778Z,3.80
2018-11-27T15:00:37.958Z,3.80
2018-11-27T15:03:07.128Z,3.90
2018-11-27T15:05:40.444Z,3.90
2018-11-27T15:08:12.178Z,4.00
2018-11-27T15:10:41.502Z,4.00
2018-11-27T15:13:11.724Z,3.90
2018-11-27T15:15:40.867Z,3.90
2018-11-27T15:18:10.050Z,3.80
2018-11-27T15:20:39.320Z,3.80
2018-11-27T15:23:08.603Z,3.80
2018-11-27T15:25:37.947Z,3.80
2018-11-27T15:28:07.052Z,3.80
2018-11-27T15:30:37.321Z,3.80
2018-11-27T15:33:07.254Z,3.70
2018-11-27T15:35:37.471Z,3.80
2018-11-27T15:38:07.424Z,3.80
2018-11-27T15:40:38.610Z,3.70
2018-11-27T15:43:07.973Z,3.60
2018-11-27T15:45:37.353Z,3.60
2018-11-27T15:48:11.649Z,3.60
2018-11-27T15:50:40.884Z,3.70
2018-11-27T15:53:10.273Z,3.70
2018-11-27T15:55:40.245Z,3.70
2018-11-27T15:58:12.869Z,3.60
2018-11-27T16:00:42.989Z,3.60
2018-11-27T16:03:12.511Z,3.60
2018-11-27T16:05:45.931Z,3.50
2018-11-27T16:08:15.725Z,3.50
2018-11-27T16:10:44.823Z,3.50
2018-11-27T16:13:13.926Z,3.50
2018-11-27T16:15:43.271Z,3.50
2018-11-27T16:18:12.468Z,3.50
2018-11-27T16:20:42.198Z,3.60
2018-11-27T16:23:11.455Z,3.50
2018-11-27T16:25:40.620Z,3.50
2018-11-27T16:28:09.902Z,3.40
2018-11-27T16:30:41.878Z,3.40
2018-11-27T16:33:11.276Z,3.40
2018-11-27T16:35:40.736Z,3.40
2018-11-27T16:38:10.226Z,3.40
2018-11-27T16:40:40.090Z,3.40
2018-11-27T16:43:09.442Z,3.40
2018-11-27T16:45:38.667Z,3.40
2018-11-27T16:48:08.031Z,3.40
2018-11-27T16:50:37.370Z,3.40
2018-11-27T16:53:06.984Z,3.50
2018-11-27T16:55:36.067Z,3.50
2018-11-27T16:58:05.319Z,3.60
2018-11-27T17:00:35.437Z,3.50
2018-11-27T17:03:06.082Z,3.50
2018-11-27T17:05:37.923Z,3.50
2018-11-27T17:08:07.251Z,3.50
2018-11-27T17:10:36.935Z,3.50
2018-11-27T17:13:11.796Z,3.50
2018-11-27T17:15:41.342Z,3.50
2018-11-27T17:18:11.232Z,3.40
2018-11-27T17:20:41.992Z,3.40
2018-11-27T17:23:13.721Z,3.50
2018-11-27T17:25:42.951Z,3.50
2018-11-27T17:28:18.782Z,3.50
2018-11-27T17:30:57.965Z,3.50
2018-11-27T17:33:34.458Z,3.50
2018-11-27T17:36:04.562Z,3.50
2018-11-27T17:38:33.750Z,3.40
2018-11-27T17:41:02.843Z,3.40
2018-11-27T17:43:32.163Z,3.40
2018-11-27T17:46:01.331Z,3.40
2018-11-27T17:48:30.554Z,3.40
2018-11-27T17:50:59.608Z,3.40
2018-11-27T17:53:28.994Z,3.40
2018-11-27T17:55:58.106Z,3.40
2018-11-27T17:58:27.218Z,3.40
2018-11-27T18:00:56.383Z,3.30
2018-11-27T18:03:25.506Z,3.30
2018-11-27T18:05:54.687Z,3.40
2018-11-27T18:08:24.142Z,3.50
2018-11-27T18:10:53.510Z,3.50
2018-11-27T18:13:22.789Z,3.40
2018-11-27T18:15:52.038Z,3.40
2018-11-27T18:18:21.160Z,3.30
2018-11-27T18:20:50.554Z,3.30
2018-11-27T18:23:20.822Z,3.40
2018-11-27T18:25:49.960Z,3.40
2018-11-27T18:28:19.264Z,3.50
2018-11-27T18:30:48.390Z,3.50
2018-11-27T18:33:17.559Z,3.50
2018-11-27T18:35:46.669Z,3.40
2018-11-27T18:38:15.984Z,3.40
2018-11-27T18:40:45.127Z,3.40
2018-11-27T18:43:14.281Z,3.40
2018-11-27T18:45:43.629Z,3.40
2018-11-27T18:48:12.936Z,3.50
2018-11-27T18:50:42.207Z,3.50
2018-11-27T18:53:11.531Z,3.40
2018-11-27T18:55:40.665Z,3.40
2018-11-27T18:58:09.908Z,3.40
2018-11-27T19:00:39.255Z,3.50
2018-11-27T19:03:09.470Z,3.40
2018-11-27T19:05:38.790Z,3.40
2018-11-27T19:08:08.154Z,3.40
2018-11-27T19:10:37.235Z,3.50
2018-11-27T19:13:07.200Z,3.50
2018-11-27T19:15:40.021Z,3.40
2018-11-27T19:18:18.008Z,3.40
2018-11-27T19:20:48.272Z,3.40
2018-11-27T19:23:18.582Z,3.40
2018-11-27T19:25:47.686Z,3.40
2018-11-27T19:28:16.996Z,3.40
2018-11-27T19:30:46.719Z,3.40
2018-11-27T19:33:15.976Z,3.40
2018-11-27T19:35:45.151Z,3.40
2018-11-27T19:38:15.913Z,3.50
2018-11-27T19:40:45.186Z,3.50
2018-11-27T19:43:14.450Z,3.40
2018-11-27T19:45:43.783Z,3.40
2018-11-27T19:48:14.486Z,3.30
2018-11-27T19:50:43.800Z,3.30
2018-11-27T19:53:14.410Z,3.30
2018-11-27T19:55:43.644Z,3.20
2018-11-27T19:58:12.916Z,3.20
2018-11-27T20:00:42.199Z,3.20
2018-11-27T20:03:12.244Z,3.20
2018-11-27T20:05:41.589Z,3.20
2018-11-27T20:08:16.542Z,3.20
2018-11-27T20:10:45.898Z,3.20
2018-11-27T20:13:15.310Z,3.30
2018-11-27T20:15:44.438Z,3.20
2018-11-27T20:18:13.598Z,3.20
2018-11-27T20:20:42.772Z,3.20
2018-11-27T20:23:11.875Z,3.20
2018-11-27T20:25:40.962Z,3.20
2018-11-27T20:28:10.402Z,3.20
2018-11-27T20:30:41.263Z,3.30
2018-11-27T20:33:10.544Z,3.30
2018-11-27T20:35:39.623Z,3.30
2018-11-27T20:38:10.095Z,3.20
2018-11-27T20:40:40.030Z,3.30
2018-11-27T20:43:09.244Z,3.30
2018-11-27T20:45:38.455Z,3.30
2018-11-27T20:48:15.602Z,3.30
2018-11-27T20:50:45.793Z,3.30
2018-11-27T20:53:14.900Z,3.30
2018-11-27T20:55:43.959Z,3.30
2018-11-27T20:58:13.174Z,3.30
2018-11-27T21:00:43.396Z,3.30
2018-11-27T21:03:13.036Z,3.30
2018-11-27T21:05:42.273Z,3.40
2018-11-27T21:08:11.514Z,3.40
2018-11-27T21:10:40.742Z,3.40
2018-11-27T21:13:10.926Z,3.40
2018-11-27T21:15:41.366Z,3.30
2018-11-27T21:18:11.629Z,3.30
2018-11-27T21:20:41.466Z,3.30
2018-11-27T21:23:10.739Z,3.30
2018-11-27T21:25:40.007Z,3.30
2018-11-27T21:28:11.658Z,3.30
2018-11-27T21:30:40.957Z,3.40
2018-11-27T21:33:10.318Z,3.40
2018-11-27T21:35:39.585Z,3.30
2018-11-27T21:38:08.891Z,3.30
2018-11-27T21:40:38.093Z,3.40
2018-11-27T21:43:08.226Z,3.40
2018-11-27T21:45:37.685Z,3.40
2018-11-27T21:48:07.708Z,3.30
2018-11-27T21:50:43.831Z,3.30
2018-11-27T21:53:13.085Z,3.30
2018-11-27T21:55:42.593Z,3.40
2018-11-27T21:58:11.843Z,3.30
2018-11-27T22:00:42.153Z,3.20
2018-11-27T22:03:12.189Z,3.20
2018-11-27T22:05:41.331Z,3.20
2018-11-27T22:08:10.805Z,3.10
2018-11-27T22:10:40.087Z,3.20
2018-11-27T22:13:10.818Z,3.30
2018-11-27T22:15:41.329Z,3.30
2018-11-27T22:18:11.540Z,3.20
2018-11-27T22:20:41.029Z,3.20
2018-11-27T22:23:10.543Z,3.20
2018-11-27T22:25:39.702Z,3.30
2018-11-27T22:28:09.360Z,3.30
2018-11-27T22:30:38.660Z,3.30
2018-11-27T22:33:08.788Z,3.30
2018-11-27T22:35:38.406Z,3.30
2018-11-27T22:38:08.117Z,3.20
2018-11-27T22:40:37.701Z,3.20
2018-11-27T22:43:07.932Z,3.30
2018-11-27T22:45:38.638Z,3.20
2018-11-27T22:48:09.416Z,3.20
2018-11-27T22:50:38.707Z,3.20
2018-11-27T22:53:08.563Z,3.20
2018-11-27T22:55:37.787Z,3.10
2018-11-27T22:58:07.970Z,3.10
2018-11-27T23:00:42.487Z,3.20
2018-11-27T23:03:11.689Z,3.20
2018-11-27T23:05:40.990Z,3.10
2018-11-27T23:08:10.233Z,3.20
2018-11-27T23:10:40.533Z,3.20
2018-11-27T23:13:09.782Z,3.20
2018-11-27T23:15:39.044Z,3.20
2018-11-27T23:18:08.226Z,3.10
2018-11-27T23:20:37.387Z,3.10
2018-11-27T23:23:06.553Z,3.10
2018-11-27T23:25:36.324Z,3.20
2018-11-27T23:28:05.796Z,3.20
2018-11-27T23:30:35.003Z,3.20
2018-11-27T23:33:04.384Z,3.20
2018-11-27T23:35:33.785Z,3.20
2018-11-27T23:38:03.833Z,3.20
2018-11-27T23:40:32.948Z,3.10
2018-11-27T23:43:02.141Z,3.10
2018-11-27T23:45:31.183Z,3.10
2018-11-27T23:48:00.502Z,3.10
2018-11-27T23:50:29.872Z,3.20
2018-11-27T23:52:58.976Z,3.10
2018-11-27T23:55:28.266Z,3.10
2018-11-27T23:57:57.540Z,3.10
